American Freedom — KAFK — position and weather

sailwx.info

Track history (hours):
 
Tides and Currents Weather Stations Pressure Air Temp Water Temp Dewpoint Dewpoint Depression Visibility Wind Speed Wind Dir Waves Ship Positions

American Freedom

Owner: Crowley Petroleum Services, Jacksonville, FL. More information available from US FCC via Universal Licensing System and Coast Guard Vessel Documentation Center.

Last reported at 2017-Oct-17 03:52 UTC. Time now 2017-Oct-17 22:31 UTC.
Position N 29°59' W 093°52'.

Length 183 m; draft 10.6 m.

Type: Tanker. MMSI: 369042000.

Date/timePositionNaut miles runAvg speedWind from/ knotsBaromVisibWave heightAir tempDewpointWater temp
2017-Oct-17 03:52N 29°59' W 093°52'5 6.2
2017-Oct-17 02:59N 30°01' W 093°57'  
2017-Oct-14 11:52N 30°05' W 094°04'1 1.8
2017-Oct-14 11:30N 30°05' W 094°05'1 2.7
2017-Oct-14 11:00N 30°04' W 094°03'3 5.7
2017-Oct-14 10:30N 30°02' W 094°02'3 6.3
2017-Oct-14 10:00N 30°01' W 093°58'3 6.5
2017-Oct-14 09:30N 29°59' W 093°55'4 7.1
2017-Oct-14 09:00N 29°57' W 093°52'510.0
2017-Oct-14 08:30N 29°53' W 093°55'19 9.7
2017-Oct-14 06:31N 29°35' W 093°47'0 9.4
2017-Oct-14 06:29N 29°35' W 093°47'3 1.7
2017-Oct-14 04:39N 29°34' W 093°43'0 2.6
2017-Oct-14 04:30N 29°33' W 093°43'  
2017-Oct-11 17:07N 25°11' W 080°06'111.9
2017-Oct-11 17:00N 25°12' W 080°05'53 3.1
2017-Oct-10 23:59N 26°06' W 080°07'0 0.0
2017-Oct-10 23:23N 26°06' W 080°07'0 0.0
2017-Oct-10 22:53N 26°06' W 080°07'0 0.0
2017-Oct-10 22:29N 26°06' W 080°07'0 0.0
2017-Oct-10 21:53N 26°06' W 080°07'0 0.0
2017-Oct-10 21:23N 26°06' W 080°07'0 0.0
2017-Oct-10 20:53N 26°06' W 080°07'0 0.0
2017-Oct-10 20:26N 26°06' W 080°07'0 0.0
2017-Oct-10 19:56N 26°06' W 080°07'0 0.0
2017-Oct-10 19:26N 26°06' W 080°07'0 0.0
2017-Oct-10 18:56N 26°06' W 080°07'0 0.0
2017-Oct-10 18:26N 26°06' W 080°07'0 0.0
2017-Oct-09 21:21N 26°06' W 080°07'0 0.0
2017-Oct-09 20:57N 26°06' W 080°07'1 1.8
2017-Oct-09 20:30N 26°06' W 080°06'510.2
2017-Oct-09 20:00N 26°04' W 080°01'713.3
2017-Oct-09 19:30N 25°59' W 079°57'714.9
2017-Oct-09 19:01N 25°51' W 079°55'816.4
2017-Oct-09 18:30N 25°43' W 079°56'816.8
2017-Oct-09 18:01N 25°35' W 079°57'917.1
2017-Oct-09 17:31N 25°26' W 079°57'  
Track history (hours):
 
Tides and Currents Weather Stations Pressure Air Temp Water Temp Dewpoint Dewpoint Depression Visibility Wind Speed Wind Dir Waves Ship Positions

American Freedom

Owner: Crowley Petroleum Services, Jacksonville, FL. More information available from US FCC via Universal Licensing System and Coast Guard Vessel Documentation Center.

Last reported at 2017-Oct-17 03:52 UTC. Time now 2017-Oct-17 22:31 UTC.
Position N 29°59' W 093°52'.

Length 183 m; draft 10.6 m.

Type: Tanker. MMSI: 369042000.

Date/timePositionNaut miles runAvg speedWind from/ knotsBaromVisibWave heightAir tempDewpointWater temp
2017-Oct-17 03:52N 29°59' W 093°52'5 6.2
2017-Oct-17 02:59N 30°01' W 093°57'  
2017-Oct-14 11:52N 30°05' W 094°04'1 1.8
2017-Oct-14 11:30N 30°05' W 094°05'1 2.7
2017-Oct-14 11:00N 30°04' W 094°03'3 5.7
2017-Oct-14 10:30N 30°02' W 094°02'3 6.3
2017-Oct-14 10:00N 30°01' W 093°58'3 6.5
2017-Oct-14 09:30N 29°59' W 093°55'4 7.1
2017-Oct-14 09:00N 29°57' W 093°52'510.0
2017-Oct-14 08:30N 29°53' W 093°55'19 9.7
2017-Oct-14 06:31N 29°35' W 093°47'0 9.4
2017-Oct-14 06:29N 29°35' W 093°47'3 1.7
2017-Oct-14 04:39N 29°34' W 093°43'0 2.6
2017-Oct-14 04:30N 29°33' W 093°43'  
2017-Oct-11 17:07N 25°11' W 080°06'111.9
2017-Oct-11 17:00N 25°12' W 080°05'53 3.1
2017-Oct-10 23:59N 26°06' W 080°07'0 0.0
2017-Oct-10 23:23N 26°06' W 080°07'0 0.0
2017-Oct-10 22:53N 26°06' W 080°07'0 0.0
2017-Oct-10 22:29N 26°06' W 080°07'0 0.0
2017-Oct-10 21:53N 26°06' W 080°07'0 0.0
2017-Oct-10 21:23N 26°06' W 080°07'0 0.0
2017-Oct-10 20:53N 26°06' W 080°07'0 0.0
2017-Oct-10 20:26N 26°06' W 080°07'0 0.0
2017-Oct-10 19:56N 26°06' W 080°07'0 0.0
2017-Oct-10 19:26N 26°06' W 080°07'0 0.0
2017-Oct-10 18:56N 26°06' W 080°07'0 0.0
2017-Oct-10 18:26N 26°06' W 080°07'0 0.0
2017-Oct-09 21:21N 26°06' W 080°07'0 0.0
2017-Oct-09 20:57N 26°06' W 080°07'1 1.8
2017-Oct-09 20:30N 26°06' W 080°06'510.2
2017-Oct-09 20:00N 26°04' W 080°01'713.3
2017-Oct-09 19:30N 25°59' W 079°57'714.9
2017-Oct-09 19:01N 25°51' W 079°55'816.4
2017-Oct-09 18:30N 25°43' W 079°56'816.8
2017-Oct-09 18:01N 25°35' W 079°57'917.1
2017-Oct-09 17:31N 25°26' W 079°57'  

Dump ship's entire track history